sensor_id;sensor_type;location;lat;lon;timestamp;pressure;altitude;pressure_sealevel;temperature;humidity
64336;BME280;50672;53.362;-6.240;2022-09-12T00:01:51;100942.97;;;17.67;83.26
64336;BME280;50672;53.362;-6.240;2022-09-12T00:04:19;100942.34;;;17.65;83.20
64336;BME280;50672;53.362;-6.240;2022-09-12T00:06:49;100941.72;;;17.63;83.15
64336;BME280;50672;53.362;-6.240;2022-09-12T00:09:16;100942.16;;;17.60;83.05
64336;BME280;50672;53.362;-6.240;2022-09-12T00:11:44;100943.66;;;17.56;83.03
64336;BME280;50672;53.362;-6.240;2022-09-12T00:14:16;100954.03;;;17.54;83.15
64336;BME280;50672;53.362;-6.240;2022-09-12T00:16:44;100953.84;;;17.55;83.29
64336;BME280;50672;53.362;-6.240;2022-09-12T00:19:11;100944.25;;;17.58;83.49
64336;BME280;50672;53.362;-6.240;2022-09-12T00:21:39;100946.38;;;17.63;83.58
64336;BME280;50672;53.362;-6.240;2022-09-12T00:24:06;100947.22;;;17.63;83.36
64336;BME280;50672;53.362;-6.240;2022-09-12T00:26:34;100942.34;;;17.65;83.55
64336;BME280;50672;53.362;-6.240;2022-09-12T00:29:00;100946.56;;;17.68;83.61
64336;BME280;50672;53.362;-6.240;2022-09-12T00:31:27;100957.34;;;17.69;83.63
64336;BME280;50672;53.362;-6.240;2022-09-12T00:33:57;100952.72;;;17.70;83.74
64336;BME280;50672;53.362;-6.240;2022-09-12T00:36:25;100952.72;;;17.70;83.78
64336;BME280;50672;53.362;-6.240;2022-09-12T00:38:53;100956.94;;;17.72;83.50
64336;BME280;50672;53.362;-6.240;2022-09-12T00:41:31;100956.94;;;17.72;83.77
64336;BME280;50672;53.362;-6.240;2022-09-12T00:44:47;100955.47;;;17.70;83.56
64336;BME280;50672;53.362;-6.240;2022-09-12T00:47:00;100957.78;;;17.66;83.57
64336;BME280;50672;53.362;-6.240;2022-09-12T00:52:29;100962.84;;;17.69;83.73
64336;BME280;50672;53.362;-6.240;2022-09-12T00:55:16;100952.50;;;17.71;83.79
64336;BME280;50672;53.362;-6.240;2022-09-12T00:57:57;100959.47;;;17.74;84.08
64336;BME280;50672;53.362;-6.240;2022-09-12T01:00:27;100955.66;;;17.75;84.05
64336;BME280;50672;53.362;-6.240;2022-09-12T01:02:57;100945.47;;;17.75;84.18
64336;BME280;50672;53.362;-6.240;2022-09-12T01:05:27;100952.03;;;17.74;84.18
64336;BME280;50672;53.362;-6.240;2022-09-12T01:07:55;100945.47;;;17.75;84.33
64336;BME280;50672;53.362;-6.240;2022-09-12T01:10:23;100945.47;;;17.75;84.10
64336;BME280;50672;53.362;-6.240;2022-09-12T01:12:50;100948.22;;;17.75;84.42
64336;BME280;50672;53.362;-6.240;2022-09-12T01:15:17;100950.16;;;17.75;84.41
64336;BME280;50672;53.362;-6.240;2022-09-12T01:34:26;100931.53;;;17.64;84.94
64336;BME280;50672;53.362;-6.240;2022-09-12T01:42:32;100929.22;;;17.60;85.01
64336;BME280;50672;53.362;-6.240;2022-09-12T01:45:14;100930.72;;;17.56;84.98
64336;BME280;50672;53.362;-6.240;2022-09-12T01:50:33;100929.94;;;17.42;85.11
64336;BME280;50672;53.362;-6.240;2022-09-12T01:53:06;100934.59;;;17.35;85.59
64336;BME280;50672;53.362;-6.240;2022-09-12T01:55:45;100936.31;;;17.30;85.42
64336;BME280;50672;53.362;-6.240;2022-09-12T01:58:27;100935.06;;;17.25;85.51
64336;BME280;50672;53.362;-6.240;2022-09-12T02:01:01;100932.97;;;17.21;85.52
64336;BME280;50672;53.362;-6.240;2022-09-12T02:03:33;100927.69;;;17.19;85.70
64336;BME280;50672;53.362;-6.240;2022-09-12T02:06:09;100930.66;;;17.18;85.81
64336;BME280;50672;53.362;-6.240;2022-09-12T02:08:46;100927.91;;;17.18;86.15
64336;BME280;50672;53.362;-6.240;2022-09-12T02:11:14;100934.22;;;17.18;86.06
64336;BME280;50672;53.362;-6.240;2022-09-12T02:13:45;100934.03;;;17.20;85.99
64336;BME280;50672;53.362;-6.240;2022-09-12T02:18:58;100922.78;;;17.28;86.40
64336;BME280;50672;53.362;-6.240;2022-09-12T02:21:28;100932.28;;;17.32;86.49
64336;BME280;50672;53.362;-6.240;2022-09-12T02:24:01;100936.94;;;17.38;86.59
64336;BME280;50672;53.362;-6.240;2022-09-12T02:26:36;100935.22;;;17.44;86.46
64336;BME280;50672;53.362;-6.240;2022-09-12T02:29:04;100932.88;;;17.48;86.60
64336;BME280;50672;53.362;-6.240;2022-09-12T02:31:39;100937.13;;;17.50;86.54
64336;BME280;50672;53.362;-6.240;2022-09-12T02:37:14;100927.81;;;17.51;86.38
64336;BME280;50672;53.362;-6.240;2022-09-12T02:39:44;100937.13;;;17.50;86.63
64336;BME280;50672;53.362;-6.240;2022-09-12T02:42:12;100929.47;;;17.52;86.56
64336;BME280;50672;53.362;-6.240;2022-09-12T02:44:39;100936.66;;;17.53;86.54
64336;BME280;50672;53.362;-6.240;2022-09-12T02:47:16;100936.66;;;17.53;86.42
64336;BME280;50672;53.362;-6.240;2022-09-12T02:49:44;100927.81;;;17.51;86.79
64336;BME280;50672;53.362;-6.240;2022-09-12T02:52:11;100928.44;;;17.47;86.67
64336;BME280;50672;53.362;-6.240;2022-09-12T02:54:38;100929.09;;;17.42;86.85
64336;BME280;50672;53.362;-6.240;2022-09-12T02:57:17;100926.34;;;17.35;86.78
64336;BME280;50672;53.362;-6.240;2022-09-12T02:59:54;100923.41;;;17.30;86.76
64336;BME280;50672;53.362;-6.240;2022-09-12T03:13:38;100915.19;;;17.17;87.22
64336;BME280;50672;53.362;-6.240;2022-09-12T03:16:16;100920.06;;;17.15;87.46
64336;BME280;50672;53.362;-6.240;2022-09-12T03:21:39;100919.22;;;17.14;87.46
64336;BME280;50672;53.362;-6.240;2022-09-12T03:24:17;100924.09;;;17.12;87.70
64336;BME280;50672;53.362;-6.240;2022-09-12T03:26:52;100924.28;;;17.11;87.67
64336;BME280;50672;53.362;-6.240;2022-09-12T03:29:21;100923.69;;;17.08;87.71
64336;BME280;50672;53.362;-6.240;2022-09-12T03:31:53;100930.44;;;17.06;87.84
64336;BME280;50672;53.362;-6.240;2022-09-12T03:34:21;100923.25;;;17.05;87.99
64336;BME280;50672;53.362;-6.240;2022-09-12T03:36:49;100932.81;;;17.02;87.87
64336;BME280;50672;53.362;-6.240;2022-09-12T03:39:17;100931.09;;;17.01;88.09
64336;BME280;50672;53.362;-6.240;2022-09-12T03:41:43;100947.78;;;17.06;87.96
64336;BME280;50672;53.362;-6.240;2022-09-12T03:44:10;100947.38;;;17.10;88.09
64336;BME280;50672;53.362;-6.240;2022-09-12T03:46:37;100943.97;;;17.14;88.18
64336;BME280;50672;53.362;-6.240;2022-09-12T03:49:04;100942.50;;;17.18;88.18
64336;BME280;50672;53.362;-6.240;2022-09-12T03:51:33;100941.00;;;17.22;88.21
64336;BME280;50672;53.362;-6.240;2022-09-12T03:54:00;100947.97;;;17.25;88.33
64336;BME280;50672;53.362;-6.240;2022-09-12T03:56:27;100953.25;;;17.27;88.21
64336;BME280;50672;53.362;-6.240;2022-09-12T03:58:54;100945.63;;;17.29;88.34
64336;BME280;50672;53.362;-6.240;2022-09-12T04:01:21;100937.16;;;17.30;88.22
64336;BME280;50672;53.362;-6.240;2022-09-12T04:03:50;100942.47;;;17.32;88.47
64336;BME280;50672;53.362;-6.240;2022-09-12T04:06:21;100939.72;;;17.32;88.55
64336;BME280;50672;53.362;-6.240;2022-09-12T04:08:53;100942.25;;;17.33;88.44
64336;BME280;50672;53.362;-6.240;2022-09-12T04:11:22;100943.09;;;17.34;88.57
64336;BME280;50672;53.362;-6.240;2022-09-12T04:13:49;100944.78;;;17.35;88.22
64336;BME280;50672;53.362;-6.240;2022-09-12T04:16:16;100943.72;;;17.36;88.38
64336;BME280;50672;53.362;-6.240;2022-09-12T04:18:44;100952.00;;;17.36;88.56
64336;BME280;50672;53.362;-6.240;2022-09-12T04:21:14;100948.16;;;17.37;88.47
64336;BME280;50672;53.362;-6.240;2022-09-12T04:23:41;100953.66;;;17.37;88.54
64336;BME280;50672;53.362;-6.240;2022-09-12T04:26:08;100954.53;;;17.37;88.31
64336;BME280;50672;53.362;-6.240;2022-09-12T04:28:36;100949.00;;;17.37;88.48
64336;BME280;50672;53.362;-6.240;2022-09-12T04:31:09;100948.38;;;17.35;88.62
64336;BME280;50672;53.362;-6.240;2022-09-12T04:33:36;100961.50;;;17.33;88.56
64336;BME280;50672;53.362;-6.240;2022-09-12T04:36:05;100959.16;;;17.30;88.58
64336;BME280;50672;53.362;-6.240;2022-09-12T04:38:32;100972.31;;;17.28;88.86
64336;BME280;50672;53.362;-6.240;2022-09-12T04:41:00;100965.31;;;17.19;88.67
64336;BME280;50672;53.362;-6.240;2022-09-12T04:43:27;100965.53;;;17.11;88.76
64336;BME280;50672;53.362;-6.240;2022-09-12T04:45:53;100964.72;;;17.03;88.86
64336;BME280;50672;53.362;-6.240;2022-09-12T04:48:20;100959.03;;;16.98;88.74
64336;BME280;50672;53.362;-6.240;2022-09-12T04:50:47;100960.69;;;16.92;88.77
64336;BME280;50672;53.362;-6.240;2022-09-12T04:53:14;100966.63;;;16.89;89.03
64336;BME280;50672;53.362;-6.240;2022-09-12T04:55:41;100961.75;;;16.85;88.71
64336;BME280;50672;53.362;-6.240;2022-09-12T04:58:07;100955.81;;;16.81;89.06
64336;BME280;50672;53.362;-6.240;2022-09-12T05:00:34;100960.91;;;16.78;88.87
64336;BME280;50672;53.362;-6.240;2022-09-12T05:03:01;100964.09;;;16.74;89.12
64336;BME280;50672;53.362;-6.240;2022-09-12T05:05:28;100961.53;;;16.73;89.06
64336;BME280;50672;53.362;-6.240;2022-09-12T05:07:55;100963.88;;;16.69;89.08
64336;BME280;50672;53.362;-6.240;2022-09-12T05:10:23;100963.22;;;16.67;89.23
64336;BME280;50672;53.362;-6.240;2022-09-12T05:12:49;100969.34;;;16.63;89.14
64336;BME280;50672;53.362;-6.240;2022-09-12T05:15:16;100972.75;;;16.58;89.00
64336;BME280;50672;53.362;-6.240;2022-09-12T05:17:43;100975.91;;;16.55;88.94
64336;BME280;50672;53.362;-6.240;2022-09-12T05:20:10;100980.13;;;16.51;89.08
64336;BME280;50672;53.362;-6.240;2022-09-12T05:22:40;100980.31;;;16.49;89.17
64336;BME280;50672;53.362;-6.240;2022-09-12T05:25:08;100977.78;;;16.48;89.17
64336;BME280;50672;53.362;-6.240;2022-09-12T05:27:34;100975.91;;;16.48;89.27
64336;BME280;50672;53.362;-6.240;2022-09-12T05:30:01;100972.28;;;16.48;88.99
64336;BME280;50672;53.362;-6.240;2022-09-12T05:32:30;100987.72;;;16.49;89.14
64336;BME280;50672;53.362;-6.240;2022-09-12T05:34:57;100982.00;;;16.50;88.98
64336;BME280;50672;53.362;-6.240;2022-09-12T05:37:24;100985.63;;;16.51;89.12
64336;BME280;50672;53.362;-6.240;2022-09-12T05:39:51;100988.38;;;16.51;89.36
64336;BME280;50672;53.362;-6.240;2022-09-12T05:42:18;100995.53;;;16.52;88.91
64336;BME280;50672;53.362;-6.240;2022-09-12T05:44:45;100998.94;;;16.54;89.04
64336;BME280;50672;53.362;-6.240;2022-09-12T05:47:11;100997.91;;;16.55;89.32
64336;BME280;50672;53.362;-6.240;2022-09-12T05:49:38;101000.44;;;16.56;89.40
64336;BME280;50672;53.362;-6.240;2022-09-12T05:52:05;100993.03;;;16.57;89.34
64336;BME280;50672;53.362;-6.240;2022-09-12T05:54:34;100999.19;;;16.59;89.35
64336;BME280;50672;53.362;-6.240;2022-09-12T05:57:01;101006.56;;;16.58;89.13
64336;BME280;50672;53.362;-6.240;2022-09-12T05:59:27;101000.00;;;16.60;89.42
64336;BME280;50672;53.362;-6.240;2022-09-12T06:01:54;101001.50;;;16.62;88.85
64336;BME280;50672;53.362;-6.240;2022-09-12T06:04:21;101007.00;;;16.62;89.11
64336;BME280;50672;53.362;-6.240;2022-09-12T06:06:49;100996.84;;;16.63;89.20
64336;BME280;50672;53.362;-6.240;2022-09-12T06:09:17;100996.84;;;16.63;88.84
64336;BME280;50672;53.362;-6.240;2022-09-12T06:11:45;101002.53;;;16.61;88.94
64336;BME280;50672;53.362;-6.240;2022-09-12T06:14:13;101010.56;;;16.63;89.09
64336;BME280;50672;53.362;-6.240;2022-09-12T06:16:41;101012.50;;;16.62;88.77
64336;BME280;50672;53.362;-6.240;2022-09-12T06:19:16;101008.66;;;16.63;89.03
64336;BME280;50672;53.362;-6.240;2022-09-12T06:21:44;101012.28;;;16.64;89.11
64336;BME280;50672;53.362;-6.240;2022-09-12T06:24:11;101018.63;;;16.64;88.69
64336;BME280;50672;53.362;-6.240;2022-09-12T06:26:37;101009.09;;;16.67;88.68
64336;BME280;50672;53.362;-6.240;2022-09-12T06:29:04;101025.16;;;16.70;88.57
64336;BME280;50672;53.362;-6.240;2022-09-12T06:31:33;101020.13;;;16.73;88.69
64336;BME280;50672;53.362;-6.240;2022-09-12T06:34:03;101024.34;;;16.76;88.55
64336;BME280;50672;53.362;-6.240;2022-09-12T06:36:37;101022.00;;;16.80;88.93
64336;BME280;50672;53.362;-6.240;2022-09-12T06:39:07;101033.66;;;16.82;88.54
64336;BME280;50672;53.362;-6.240;2022-09-12T06:41:35;101029.81;;;16.83;88.69
64336;BME280;50672;53.362;-6.240;2022-09-12T06:44:11;101028.78;;;16.84;88.55
64336;BME280;50672;53.362;-6.240;2022-09-12T06:46:39;101026.69;;;16.86;88.63
64336;BME280;50672;53.362;-6.240;2022-09-12T06:49:06;101023.72;;;16.87;88.38
64336;BME280;50672;53.362;-6.240;2022-09-12T06:51:33;101030.75;;;16.90;88.34
64336;BME280;50672;53.362;-6.240;2022-09-12T06:54:04;101026.91;;;16.91;88.50
64336;BME280;50672;53.362;-6.240;2022-09-12T06:56:31;101026.50;;;16.94;88.22
64336;BME280;50672;53.362;-6.240;2022-09-12T06:58:58;101027.13;;;16.96;88.18
64336;BME280;50672;53.362;-6.240;2022-09-12T07:01:27;101027.78;;;16.98;88.15
64336;BME280;50672;53.362;-6.240;2022-09-12T07:03:59;101037.69;;;16.99;88.15
64336;BME280;50672;53.362;-6.240;2022-09-12T07:06:29;101038.78;;;16.98;88.20
64336;BME280;50672;53.362;-6.240;2022-09-12T07:09:01;101041.53;;;16.98;87.74
64336;BME280;50672;53.362;-6.240;2022-09-12T07:11:31;101042.16;;;17.00;87.98
64336;BME280;50672;53.362;-6.240;2022-09-12T07:14:00;101044.69;;;17.02;87.89
64336;BME280;50672;53.362;-6.240;2022-09-12T07:16:28;101055.69;;;17.02;87.73
64336;BME280;50672;53.362;-6.240;2022-09-12T07:19:00;101049.75;;;17.05;87.63
64336;BME280;50672;53.362;-6.240;2022-09-12T07:21:27;101056.53;;;17.09;87.58
64336;BME280;50672;53.362;-6.240;2022-09-12T07:23:55;101045.13;;;17.12;87.51
64336;BME280;50672;53.362;-6.240;2022-09-12T07:26:25;101049.13;;;17.16;87.53
64336;BME280;50672;53.362;-6.240;2022-09-12T07:28:53;101043.84;;;17.21;87.55
64336;BME280;50672;53.362;-6.240;2022-09-12T07:31:38;101048.50;;;17.28;87.37
64336;BME280;50672;53.362;-6.240;2022-09-12T07:34:05;101049.78;;;17.32;87.43
64336;BME280;50672;53.362;-6.240;2022-09-12T07:36:32;101054.63;;;17.43;86.99
64336;BME280;50672;53.362;-6.240;2022-09-12T07:38:59;101062.00;;;17.56;86.71
64336;BME280;50672;53.362;-6.240;2022-09-12T07:41:28;101054.38;;;17.65;86.97
64336;BME280;50672;53.362;-6.240;2022-09-12T07:43:58;101058.59;;;17.67;86.82
64336;BME280;50672;53.362;-6.240;2022-09-12T07:46:26;101059.63;;;17.73;86.87
64336;BME280;50672;53.362;-6.240;2022-09-12T07:48:56;101062.63;;;17.71;86.60
64336;BME280;50672;53.362;-6.240;2022-09-12T07:51:25;101056.22;;;17.77;86.46
64336;BME280;50672;53.362;-6.240;2022-09-12T07:53:52;101055.16;;;17.85;86.35
64336;BME280;50672;53.362;-6.240;2022-09-12T07:56:19;101060.88;;;17.90;86.22
64336;BME280;50672;53.362;-6.240;2022-09-12T07:58:51;101066.81;;;17.94;86.00
64336;BME280;50672;53.362;-6.240;2022-09-12T08:01:19;101067.47;;;17.96;85.78
64336;BME280;50672;53.362;-6.240;2022-09-12T08:03:53;101061.72;;;17.98;85.67
64336;BME280;50672;53.362;-6.240;2022-09-12T08:06:21;101062.78;;;17.97;85.36
64336;BME280;50672;53.362;-6.240;2022-09-12T08:08:53;101066.78;;;18.01;85.33
64336;BME280;50672;53.362;-6.240;2022-09-12T08:11:21;101067.22;;;18.04;84.96
64336;BME280;50672;53.362;-6.240;2022-09-12T08:13:49;101066.34;;;18.10;84.86
64336;BME280;50672;53.362;-6.240;2022-09-12T08:16:25;101057.63;;;18.14;84.76
64336;BME280;50672;53.362;-6.240;2022-09-12T08:18:53;101067.16;;;18.18;84.55
64336;BME280;50672;53.362;-6.240;2022-09-12T08:21:22;101066.09;;;18.19;84.20
64336;BME280;50672;53.362;-6.240;2022-09-12T08:23:54;101069.28;;;18.22;84.16
64336;BME280;50672;53.362;-6.240;2022-09-12T08:26:22;101073.06;;;18.28;84.07
64336;BME280;50672;53.362;-6.240;2022-09-12T08:28:49;101070.25;;;18.35;83.83
64336;BME280;50672;53.362;-6.240;2022-09-12T08:31:18;101067.06;;;18.38;83.88
64336;BME280;50672;53.362;-6.240;2022-09-12T08:33:46;101069.16;;;18.42;83.37
64336;BME280;50672;53.362;-6.240;2022-09-12T08:36:18;101075.28;;;18.44;83.38
64336;BME280;50672;53.362;-6.240;2022-09-12T08:38:55;101071.03;;;18.49;83.25
64336;BME280;50672;53.362;-6.240;2022-09-12T08:41:48;101072.72;;;18.50;82.95
64336;BME280;50672;53.362;-6.240;2022-09-12T08:47:49;101074.22;;;18.45;82.67
64336;BME280;50672;53.362;-6.240;2022-09-12T08:50:18;101082.50;;;18.45;82.38
64336;BME280;50672;53.362;-6.240;2022-09-12T08:55:39;101088.69;;;18.34;82.02
64336;BME280;50672;53.362;-6.240;2022-09-12T08:58:13;101088.50;;;18.29;81.95
64336;BME280;50672;53.362;-6.240;2022-09-12T09:09:13;101101.00;;;18.32;81.63
64336;BME280;50672;53.362;-6.240;2022-09-12T09:11:59;101102.03;;;18.37;81.67
64336;BME280;50672;53.362;-6.240;2022-09-12T09:17:22;101099.00;;;18.52;81.40
64336;BME280;50672;53.362;-6.240;2022-09-12T09:20:22;101105.50;;;18.71;81.40
64336;BME280;50672;53.362;-6.240;2022-09-12T09:23:19;101101.78;;;18.91;81.37
64336;BME280;50672;53.362;-6.240;2022-09-12T09:26:09;101104.56;;;19.16;81.11
64336;BME280;50672;53.362;-6.240;2022-09-12T09:28:48;101095.34;;;19.29;80.97
64336;BME280;50672;53.362;-6.240;2022-09-12T09:31:21;101101.91;;;19.28;80.73
64336;BME280;50672;53.362;-6.240;2022-09-12T09:33:50;101102.59;;;19.23;80.34
64336;BME280;50672;53.362;-6.240;2022-09-12T09:36:28;101101.31;;;19.26;80.20
64336;BME280;50672;53.362;-6.240;2022-09-12T09:42:08;101107.06;;;19.50;79.80
64336;BME280;50672;53.362;-6.240;2022-09-12T09:44:36;101108.38;;;19.66;79.80
64336;BME280;50672;53.362;-6.240;2022-09-12T09:47:03;101113.97;;;19.59;79.74
64336;BME280;50672;53.362;-6.240;2022-09-12T09:49:32;101118.53;;;19.46;79.69
64336;BME280;50672;53.362;-6.240;2022-09-12T09:52:00;101121.59;;;19.38;79.60
64336;BME280;50672;53.362;-6.240;2022-09-12T09:54:52;101120.59;;;19.33;79.53
64336;BME280;50672;53.362;-6.240;2022-09-12T10:00:24;101128.22;;;19.30;79.42
64336;BME280;50672;53.362;-6.240;2022-09-12T10:05:51;101131.25;;;19.22;79.22
64336;BME280;50672;53.362;-6.240;2022-09-12T10:08:33;101131.31;;;19.16;79.31
64336;BME280;50672;53.362;-6.240;2022-09-12T10:11:21;101127.94;;;19.13;79.46
64336;BME280;50672;53.362;-6.240;2022-09-12T10:13:56;101137.31;;;19.06;79.64
64336;BME280;50672;53.362;-6.240;2022-09-12T10:16:29;101137.19;;;18.94;79.16
64336;BME280;50672;53.362;-6.240;2022-09-12T10:18:58;101129.59;;;18.83;79.65
64336;BME280;50672;53.362;-6.240;2022-09-12T10:27:11;101134.66;;;18.92;79.69
64336;BME280;50672;53.362;-6.240;2022-09-12T10:29:44;101141.22;;;18.98;80.01
64336;BME280;50672;53.362;-6.240;2022-09-12T10:32:30;101137.44;;;18.92;79.82
64336;BME280;50672;53.362;-6.240;2022-09-12T10:35:04;101146.97;;;18.83;79.75
64336;BME280;50672;53.362;-6.240;2022-09-12T10:37:36;101146.41;;;18.74;80.06
64336;BME280;50672;53.362;-6.240;2022-09-12T10:40:06;101149.41;;;18.66;79.98
64336;BME280;50672;53.362;-6.240;2022-09-12T10:42:50;101153.47;;;18.57;80.34
64336;BME280;50672;53.362;-6.240;2022-09-12T10:45:27;101157.56;;;18.48;80.40
64336;BME280;50672;53.362;-6.240;2022-09-12T10:47:59;101156.72;;;18.40;80.73
64336;BME280;50672;53.362;-6.240;2022-09-12T10:50:40;101164.38;;;18.38;80.76
64336;BME280;50672;53.362;-6.240;2022-09-12T11:15:39;101163.69;;;18.50;81.77
64336;BME280;50672;53.362;-6.240;2022-09-12T11:32:09;101163.31;;;18.39;81.99
64336;BME280;50672;53.362;-6.240;2022-09-12T11:35:16;101170.09;;;18.43;82.26
64336;BME280;50672;53.362;-6.240;2022-09-12T11:40:47;101178.06;;;18.58;82.41
64336;BME280;50672;53.362;-6.240;2022-09-12T11:43:23;101182.50;;;18.66;82.42
64336;BME280;50672;53.362;-6.240;2022-09-12T11:45:56;101186.06;;;18.73;82.36
64336;BME280;50672;53.362;-6.240;2022-09-12T11:48:37;101180.75;;;18.78;82.33
64336;BME280;50672;53.362;-6.240;2022-09-12T11:51:36;101174.59;;;18.76;82.19
64336;BME280;50672;53.362;-6.240;2022-09-12T11:54:13;101182.72;;;18.65;82.23
64336;BME280;50672;53.362;-6.240;2022-09-12T11:56:46;101173.63;;;18.57;82.27
64336;BME280;50672;53.362;-6.240;2022-09-12T12:01:58;101188.13;;;18.33;82.49
64336;BME280;50672;53.362;-6.240;2022-09-12T12:04:33;101185.63;;;18.18;82.54
64336;BME280;50672;53.362;-6.240;2022-09-12T12:07:09;101182.03;;;18.10;82.83
64336;BME280;50672;53.362;-6.240;2022-09-12T12:09:49;101176.75;;;18.02;83.03
64336;BME280;50672;53.362;-6.240;2022-09-12T12:12:27;101175.06;;;18.01;83.02
64336;BME280;50672;53.362;-6.240;2022-09-12T12:14:55;101181.22;;;18.03;83.24
64336;BME280;50672;53.362;-6.240;2022-09-12T12:17:24;101180.13;;;18.11;83.42
64336;BME280;50672;53.362;-6.240;2022-09-12T12:20:02;101180.34;;;18.09;83.29
64336;BME280;50672;53.362;-6.240;2022-09-12T12:22:34;101183.09;;;18.09;83.55
64336;BME280;50672;53.362;-6.240;2022-09-12T12:25:21;101177.81;;;18.08;83.88
64336;BME280;50672;53.362;-6.240;2022-09-12T12:27:57;101179.94;;;18.06;83.93
64336;BME280;50672;53.362;-6.240;2022-09-12T12:36:04;101186.50;;;18.12;83.80
64336;BME280;50672;53.362;-6.240;2022-09-12T12:38:30;101183.50;;;18.20;83.88
64336;BME280;50672;53.362;-6.240;2022-09-12T12:43:50;101194.69;;;18.38;84.03
64336;BME280;50672;53.362;-6.240;2022-09-12T12:46:27;101199.13;;;18.46;84.28
64336;BME280;50672;53.362;-6.240;2022-09-12T12:49:10;101205.03;;;18.50;83.90
64336;BME280;50672;53.362;-6.240;2022-09-12T12:57:29;101202.84;;;18.65;83.94
64336;BME280;50672;53.362;-6.240;2022-09-12T13:02:27;101214.25;;;18.82;83.74
64336;BME280;50672;53.362;-6.240;2022-09-12T13:04:58;101210.66;;;18.75;83.68
64336;BME280;50672;53.362;-6.240;2022-09-12T13:07:37;101212.19;;;18.64;83.54
64336;BME280;50672;53.362;-6.240;2022-09-12T13:10:06;101218.81;;;18.56;83.51
64336;BME280;50672;53.362;-6.240;2022-09-12T13:12:43;101210.78;;;18.48;83.58
64336;BME280;50672;53.362;-6.240;2022-09-12T13:18:05;101226.88;;;18.44;83.67
64336;BME280;50672;53.362;-6.240;2022-09-12T13:20:37;101230.53;;;18.38;83.45
64336;BME280;50672;53.362;-6.240;2022-09-12T13:23:21;101229.69;;;18.38;83.59
64336;BME280;50672;53.362;-6.240;2022-09-12T13:25:53;101229.69;;;18.38;83.28
64336;BME280;50672;53.362;-6.240;2022-09-12T13:28:20;101228.81;;;18.37;83.37
64336;BME280;50672;53.362;-6.240;2022-09-12T13:30:55;101234.16;;;18.32;83.64
64336;BME280;50672;53.362;-6.240;2022-09-12T13:33:35;101221.66;;;18.30;83.62
64336;BME280;50672;53.362;-6.240;2022-09-12T13:44:08;101226.03;;;18.51;83.64
64336;BME280;50672;53.362;-6.240;2022-09-12T13:46:36;101222.41;;;18.50;83.71
64336;BME280;50672;53.362;-6.240;2022-09-12T13:52:36;101230.66;;;18.57;83.44
64336;BME280;50672;53.362;-6.240;2022-09-12T13:54:44;101237.66;;;18.59;83.25
64336;BME280;50672;53.362;-6.240;2022-09-12T14:00:12;101234.50;;;18.56;83.25
64336;BME280;50672;53.362;-6.240;2022-09-12T14:02:48;101233.66;;;18.49;82.96
64336;BME280;50672;53.362;-6.240;2022-09-12T14:05:22;101239.00;;;18.43;82.99
64336;BME280;50672;53.362;-6.240;2022-09-12T14:07:55;101241.53;;;18.38;83.12
64336;BME280;50672;53.362;-6.240;2022-09-12T14:10:37;101237.09;;;18.31;83.00
64336;BME280;50672;53.362;-6.240;2022-09-12T14:13:31;101240.09;;;18.22;82.99
64336;BME280;50672;53.362;-6.240;2022-09-12T14:15:58;101231.63;;;18.17;83.29
64336;BME280;50672;53.362;-6.240;2022-09-12T14:18:30;101230.13;;;18.15;83.23
64336;BME280;50672;53.362;-6.240;2022-09-12T14:21:10;101233.13;;;18.13;83.13
64336;BME280;50672;53.362;-6.240;2022-09-12T14:23:42;101227.59;;;18.20;83.36
64336;BME280;50672;53.362;-6.240;2022-09-12T14:26:11;101232.88;;;18.28;83.66
64336;BME280;50672;53.362;-6.240;2022-09-12T14:28:41;101230.13;;;18.28;83.36
64336;BME280;50672;53.362;-6.240;2022-09-12T14:33:52;101234.38;;;18.24;83.44
64336;BME280;50672;53.362;-6.240;2022-09-12T14:36:21;101238.63;;;18.20;83.78
64336;BME280;50672;53.362;-6.240;2022-09-12T14:38:52;101241.78;;;18.17;83.83
64336;BME280;50672;53.362;-6.240;2022-09-12T14:41:26;101241.16;;;18.15;83.85
64336;BME280;50672;53.362;-6.240;2022-09-12T14:43:57;101244.34;;;18.12;83.74
64336;BME280;50672;53.362;-6.240;2022-09-12T14:46:34;101242.66;;;18.10;83.70
64336;BME280;50672;53.362;-6.240;2022-09-12T14:49:33;101236.09;;;18.12;83.66
64336;BME280;50672;53.362;-6.240;2022-09-12T14:52:06;101238.41;;;18.15;83.70
64336;BME280;50672;53.362;-6.240;2022-09-12T14:54:34;101245.84;;;18.14;83.72
64336;BME280;50672;53.362;-6.240;2022-09-12T14:59:49;101248.38;;;18.02;83.95
64336;BME280;50672;53.362;-6.240;2022-09-12T15:07:14;101250.25;;;17.82;84.07
64336;BME280;50672;53.362;-6.240;2022-09-12T15:09:42;101257.69;;;17.88;83.92
64336;BME280;50672;53.362;-6.240;2022-09-12T15:12:12;101255.53;;;17.90;83.97
64336;BME280;50672;53.362;-6.240;2022-09-12T15:14:39;101257.72;;;17.95;84.01
64336;BME280;50672;53.362;-6.240;2022-09-12T15:17:06;101255.16;;;17.93;84.00
64336;BME280;50672;53.362;-6.240;2022-09-12T15:19:33;101258.78;;;17.93;83.99
64336;BME280;50672;53.362;-6.240;2022-09-12T15:21:59;101256.84;;;17.94;83.98
64336;BME280;50672;53.362;-6.240;2022-09-12T15:24:26;101263.81;;;17.90;84.10
64336;BME280;50672;53.362;-6.240;2022-09-12T15:26:53;101269.75;;;17.80;83.82
64336;BME280;50672;53.362;-6.240;2022-09-12T15:29:20;101268.28;;;17.71;83.65
64336;BME280;50672;53.362;-6.240;2022-09-12T15:31:49;101266.56;;;17.63;83.57
64336;BME280;50672;53.362;-6.240;2022-09-12T15:34:16;101262.53;;;17.66;83.56
64336;BME280;50672;53.362;-6.240;2022-09-12T15:36:43;101262.31;;;17.67;83.54
64336;BME280;50672;53.362;-6.240;2022-09-12T15:39:10;101263.16;;;17.74;83.59
64336;BME280;50672;53.362;-6.240;2022-09-12T15:41:37;101267.63;;;17.75;83.38
64336;BME280;50672;53.362;-6.240;2022-09-12T15:44:11;101266.16;;;17.80;83.23
64336;BME280;50672;53.362;-6.240;2022-09-12T15:46:38;101262.34;;;17.81;83.07
64336;BME280;50672;53.362;-6.240;2022-09-12T15:49:05;101265.72;;;17.83;83.09